Terminal Aerodrome Forecast
Issued by NWS Sterling, VA

Current Version | Previous Version | Text Only | Print | Product List | Glossary Off
Versions: 1 2 3 4 5 6 7 8 9 10 11 12 13 14 15 16 17 18 19 20 21

000
FTUS41 KLWX 221700
TAFDCA
TAF
KDCA 221739Z 2218/2318 27010G20KT P6SM -SHRA OVC080
     FM222000 25010G20KT P6SM SCT060 OVC070
     FM222300 29012G20KT P6SM SCT050 BKN150
     FM230300 32012G20KT P6SM SCT250
     FM231200 31017G27KT P6SM BKN200=

USA.gov is the U.S. government's official web portal to all federal, state and local government web resources and services.